sensor_id;sensor_type;location;lat;lon;timestamp;pressure;altitude;pressure_sealevel;temperature;humidity
55077;BME280;40971;44.702;11.030;2023-07-20T00:00:25;100775.63;;;21.90;77.84
55077;BME280;40971;44.702;11.030;2023-07-20T00:10:28;100762.13;;;21.62;78.43
55077;BME280;40971;44.702;11.030;2023-07-20T00:20:30;100789.66;;;21.16;80.59
55077;BME280;40971;44.702;11.030;2023-07-20T00:30:32;100763.06;;;21.56;78.26
55077;BME280;40971;44.702;11.030;2023-07-20T00:40:39;100752.25;;;21.63;79.82
55077;BME280;40971;44.702;11.030;2023-07-20T00:50:43;100757.53;;;22.09;78.87
55077;BME280;40971;44.702;11.030;2023-07-20T01:00:44;100782.72;;;21.15;82.51
55077;BME280;40971;44.702;11.030;2023-07-20T01:10:54;100782.72;;;21.15;82.77
55077;BME280;40971;44.702;11.030;2023-07-20T01:21:03;100780.94;;;21.09;82.36
55077;BME280;40971;44.702;11.030;2023-07-20T01:31:30;100775.03;;;21.07;81.99
55077;BME280;40971;44.702;11.030;2023-07-20T01:41:34;100780.72;;;21.11;80.95
55077;BME280;40971;44.702;11.030;2023-07-20T01:51:36;100769.34;;;21.15;82.76
55077;BME280;40971;44.702;11.030;2023-07-20T02:01:37;100768.28;;;21.16;84.96
55077;BME280;40971;44.702;11.030;2023-07-20T02:11:38;100786.09;;;21.34;85.80
55077;BME280;40971;44.702;11.030;2023-07-20T02:21:40;100786.22;;;21.39;87.08
55077;BME280;40971;44.702;11.030;2023-07-20T02:31:42;100804.59;;;21.82;85.83
55077;BME280;40971;44.702;11.030;2023-07-20T02:41:44;100793.25;;;22.15;84.57
55077;BME280;40971;44.702;11.030;2023-07-20T02:51:46;100787.03;;;22.37;84.40
55077;BME280;40971;44.702;11.030;2023-07-20T03:01:49;100796.41;;;22.80;81.52
55077;BME280;40971;44.702;11.030;2023-07-20T03:11:51;100792.91;;;22.79;81.17
55077;BME280;40971;44.702;11.030;2023-07-20T03:21:52;100797.31;;;22.85;80.20
55077;BME280;40971;44.702;11.030;2023-07-20T03:31:53;100789.34;;;22.74;79.62
55077;BME280;40971;44.702;11.030;2023-07-20T03:41:54;100791.13;;;22.56;80.00
55077;BME280;40971;44.702;11.030;2023-07-20T03:51:55;100792.16;;;22.39;80.96
55077;BME280;40971;44.702;11.030;2023-07-20T04:01:56;100791.28;;;22.22;79.72
55077;BME280;40971;44.702;11.030;2023-07-20T04:11:58;100791.84;;;22.24;79.07
55077;BME280;40971;44.702;11.030;2023-07-20T04:21:59;100789.41;;;22.50;78.24
55077;BME280;40971;44.702;11.030;2023-07-20T04:32:01;100784.00;;;22.62;78.01
55077;BME280;40971;44.702;11.030;2023-07-20T04:42:02;100814.41;;;22.68;77.37
55077;BME280;40971;44.702;11.030;2023-07-20T04:52:05;100812.22;;;22.65;79.25
55077;BME280;40971;44.702;11.030;2023-07-20T05:02:07;100820.84;;;23.11;77.81
55077;BME280;40971;44.702;11.030;2023-07-20T05:12:08;100818.41;;;23.10;78.30
55077;BME280;40971;44.702;11.030;2023-07-20T05:22:13;100812.81;;;23.11;78.74
55077;BME280;40971;44.702;11.030;2023-07-20T05:32:15;100816.75;;;23.09;77.76
55077;BME280;40971;44.702;11.030;2023-07-20T05:42:19;100813.34;;;22.97;80.90
55077;BME280;40971;44.702;11.030;2023-07-20T05:52:20;100817.44;;;23.49;77.46
55077;BME280;40971;44.702;11.030;2023-07-20T06:02:21;100807.81;;;23.87;73.55
55077;BME280;40971;44.702;11.030;2023-07-20T06:12:23;100827.31;;;24.20;73.58
55077;BME280;40971;44.702;11.030;2023-07-20T06:22:24;100832.38;;;24.60;67.40
55077;BME280;40971;44.702;11.030;2023-07-20T06:32:27;100832.94;;;25.16;67.08
55077;BME280;40971;44.702;11.030;2023-07-20T06:42:29;100841.28;;;25.46;63.91
55077;BME280;40971;44.702;11.030;2023-07-20T06:52:31;100843.69;;;25.79;62.73
55077;BME280;40971;44.702;11.030;2023-07-20T07:02:32;100861.56;;;26.52;62.42
55077;BME280;40971;44.702;11.030;2023-07-20T07:12:35;100850.41;;;27.31;59.58
55077;BME280;40971;44.702;11.030;2023-07-20T07:22:37;100870.41;;;28.60;56.66
55077;BME280;40971;44.702;11.030;2023-07-20T07:32:38;100865.34;;;29.36;54.33
55077;BME280;40971;44.702;11.030;2023-07-20T07:42:42;100864.28;;;29.94;51.50
55077;BME280;40971;44.702;11.030;2023-07-20T07:52:43;100878.41;;;30.15;52.49
55077;BME280;40971;44.702;11.030;2023-07-20T08:02:45;100882.44;;;31.21;50.26
55077;BME280;40971;44.702;11.030;2023-07-20T08:12:48;100874.06;;;31.68;48.45
55077;BME280;40971;44.702;11.030;2023-07-20T08:22:49;100865.13;;;31.17;50.10
55077;BME280;40971;44.702;11.030;2023-07-20T08:32:50;100874.47;;;31.43;50.34
55077;BME280;40971;44.702;11.030;2023-07-20T08:42:54;100883.56;;;31.98;46.88
55077;BME280;40971;44.702;11.030;2023-07-20T08:52:57;100863.66;;;32.79;47.16
55077;BME280;40971;44.702;11.030;2023-07-20T09:03:02;100866.47;;;33.77;45.48
55077;BME280;40971;44.702;11.030;2023-07-20T09:13:05;100856.41;;;34.51;42.57
55077;BME280;40971;44.702;11.030;2023-07-20T09:23:06;100855.84;;;33.67;42.62
55077;BME280;40971;44.702;11.030;2023-07-20T09:33:18;100853.50;;;32.71;45.85
55077;BME280;40971;44.702;11.030;2023-07-20T09:43:20;100854.16;;;33.57;43.29
55077;BME280;40971;44.702;11.030;2023-07-20T09:53:25;100850.38;;;32.64;47.89
55077;BME280;40971;44.702;11.030;2023-07-20T10:03:31;100845.34;;;33.60;45.74
55077;BME280;40971;44.702;11.030;2023-07-20T10:13:38;100839.44;;;34.63;44.23
55077;BME280;40971;44.702;11.030;2023-07-20T10:23:41;100839.13;;;34.64;41.75
55077;BME280;40971;44.702;11.030;2023-07-20T10:33:44;100836.16;;;35.38;42.88
55077;BME280;40971;44.702;11.030;2023-07-20T10:43:47;100822.59;;;35.12;45.04
55077;BME280;40971;44.702;11.030;2023-07-20T10:53:49;100813.84;;;33.85;45.13
55077;BME280;40971;44.702;11.030;2023-07-20T11:03:57;100802.91;;;33.76;46.18
55077;BME280;40971;44.702;11.030;2023-07-20T11:14:10;100791.44;;;35.51;42.97
55077;BME280;40971;44.702;11.030;2023-07-20T11:24:12;100781.22;;;32.65;48.35
55077;BME280;40971;44.702;11.030;2023-07-20T11:34:17;100779.81;;;34.56;47.15
55077;BME280;40971;44.702;11.030;2023-07-20T11:44:21;100764.69;;;36.24;40.58
55077;BME280;40971;44.702;11.030;2023-07-20T11:54:29;100760.63;;;35.25;44.49
55077;BME280;40971;44.702;11.030;2023-07-20T12:04:33;100751.09;;;35.39;41.91
55077;BME280;40971;44.702;11.030;2023-07-20T12:14:35;100731.47;;;35.75;43.60
55077;BME280;40971;44.702;11.030;2023-07-20T12:24:36;100713.63;;;35.98;41.60
55077;BME280;40971;44.702;11.030;2023-07-20T12:34:40;100716.03;;;35.33;42.07
55077;BME280;40971;44.702;11.030;2023-07-20T12:44:44;100705.28;;;35.28;46.98
55077;BME280;40971;44.702;11.030;2023-07-20T12:54:45;100692.44;;;34.47;44.02
55077;BME280;40971;44.702;11.030;2023-07-20T13:04:47;100679.78;;;36.24;42.56
55077;BME280;40971;44.702;11.030;2023-07-20T13:14:52;100680.22;;;35.26;45.15
55077;BME280;40971;44.702;11.030;2023-07-20T13:24:53;100668.72;;;36.53;41.39
55077;BME280;40971;44.702;11.030;2023-07-20T13:34:54;100653.53;;;34.68;45.79
55077;BME280;40971;44.702;11.030;2023-07-20T13:44:56;100638.28;;;34.49;45.61
55077;BME280;40971;44.702;11.030;2023-07-20T13:54:57;100629.16;;;35.00;42.17
55077;BME280;40971;44.702;11.030;2023-07-20T14:05:01;100609.75;;;35.81;40.89
55077;BME280;40971;44.702;11.030;2023-07-20T14:15:03;100614.53;;;36.26;41.90
55077;BME280;40971;44.702;11.030;2023-07-20T14:25:07;100596.44;;;34.83;43.44
55077;BME280;40971;44.702;11.030;2023-07-20T14:35:10;100587.69;;;34.52;43.10
55077;BME280;40971;44.702;11.030;2023-07-20T14:45:13;100584.44;;;35.14;43.75
55077;BME280;40971;44.702;11.030;2023-07-20T14:55:16;100592.19;;;33.54;45.28
55077;BME280;40971;44.702;11.030;2023-07-20T15:05:23;100583.72;;;33.98;50.90
55077;BME280;40971;44.702;11.030;2023-07-20T15:15:25;100574.00;;;34.98;43.00
55077;BME280;40971;44.702;11.030;2023-07-20T15:25:30;100578.63;;;35.86;38.57
55077;BME280;40971;44.702;11.030;2023-07-20T15:35:32;100561.59;;;36.34;45.05
55077;BME280;40971;44.702;11.030;2023-07-20T15:45:35;100552.03;;;34.40;42.56
55077;BME280;40971;44.702;11.030;2023-07-20T15:55:38;100530.56;;;34.76;45.21
55077;BME280;40971;44.702;11.030;2023-07-20T16:05:40;100528.13;;;34.37;44.52
55077;BME280;40971;44.702;11.030;2023-07-20T16:15:43;100507.94;;;34.04;43.77
55077;BME280;40971;44.702;11.030;2023-07-20T16:25:46;100516.91;;;34.30;46.20
55077;BME280;40971;44.702;11.030;2023-07-20T16:35:47;100515.03;;;33.53;47.05
55077;BME280;40971;44.702;11.030;2023-07-20T16:45:48;100502.94;;;33.03;48.40
55077;BME280;40971;44.702;11.030;2023-07-20T16:55:51;100488.94;;;32.78;49.82
55077;BME280;40971;44.702;11.030;2023-07-20T17:05:52;100483.13;;;32.63;50.61
55077;BME280;40971;44.702;11.030;2023-07-20T17:15:53;100470.16;;;32.29;52.04
55077;BME280;40971;44.702;11.030;2023-07-20T17:25:54;100478.56;;;31.97;50.79
55077;BME280;40971;44.702;11.030;2023-07-20T17:35:56;100464.50;;;31.50;53.11
55077;BME280;40971;44.702;11.030;2023-07-20T17:45:59;100467.59;;;31.44;54.53
55077;BME280;40971;44.702;11.030;2023-07-20T17:56:01;100472.94;;;31.13;55.62
55077;BME280;40971;44.702;11.030;2023-07-20T18:06:06;100465.22;;;30.79;57.04
55077;BME280;40971;44.702;11.030;2023-07-20T18:16:08;100468.84;;;30.61;58.64
55077;BME280;40971;44.702;11.030;2023-07-20T18:26:10;100469.06;;;30.19;61.08
55077;BME280;40971;44.702;11.030;2023-07-20T18:36:12;100474.47;;;29.73;61.13
55077;BME280;40971;44.702;11.030;2023-07-20T18:46:15;100469.50;;;29.42;63.04
55077;BME280;40971;44.702;11.030;2023-07-20T18:56:20;100474.28;;;29.08;65.42
55077;BME280;40971;44.702;11.030;2023-07-20T19:06:21;100489.56;;;28.99;67.00
55077;BME280;40971;44.702;11.030;2023-07-20T19:16:23;100500.53;;;28.37;70.07
55077;BME280;40971;44.702;11.030;2023-07-20T19:26:27;100508.56;;;28.47;67.21
55077;BME280;40971;44.702;11.030;2023-07-20T19:36:28;100506.25;;;28.59;68.43
55077;BME280;40971;44.702;11.030;2023-07-20T19:46:32;100522.66;;;28.44;71.48
55077;BME280;40971;44.702;11.030;2023-07-20T19:56:33;100521.06;;;28.38;72.19
55077;BME280;40971;44.702;11.030;2023-07-20T20:06:36;100518.00;;;28.20;74.72
55077;BME280;40971;44.702;11.030;2023-07-20T20:16:38;100531.09;;;28.03;75.92
55077;BME280;40971;44.702;11.030;2023-07-20T20:26:39;100548.97;;;27.99;75.16
55077;BME280;40971;44.702;11.030;2023-07-20T20:36:43;100551.09;;;28.07;74.24
55077;BME280;40971;44.702;11.030;2023-07-20T20:46:45;100533.97;;;27.83;74.84
55077;BME280;40971;44.702;11.030;2023-07-20T20:56:50;100546.69;;;27.78;74.27
55077;BME280;40971;44.702;11.030;2023-07-20T21:07:02;100549.69;;;27.71;74.56
55077;BME280;40971;44.702;11.030;2023-07-20T21:17:03;100547.66;;;27.48;75.60
55077;BME280;40971;44.702;11.030;2023-07-20T21:27:06;100567.44;;;27.28;76.56
55077;BME280;40971;44.702;11.030;2023-07-20T21:37:09;100558.59;;;27.17;76.89
55077;BME280;40971;44.702;11.030;2023-07-20T21:47:13;100542.78;;;26.86;78.46
55077;BME280;40971;44.702;11.030;2023-07-20T21:57:15;100544.22;;;26.38;81.40
55077;BME280;40971;44.702;11.030;2023-07-20T22:07:16;100533.94;;;25.99;83.17
55077;BME280;40971;44.702;11.030;2023-07-20T22:17:21;100549.56;;;26.02;83.03
55077;BME280;40971;44.702;11.030;2023-07-20T22:27:22;100529.91;;;25.92;83.66
55077;BME280;40971;44.702;11.030;2023-07-20T22:37:24;100561.38;;;25.71;84.51
55077;BME280;40971;44.702;11.030;2023-07-20T22:47:28;100585.47;;;25.36;85.33
55077;BME280;40971;44.702;11.030;2023-07-20T22:57:30;100576.78;;;25.14;87.15
55077;BME280;40971;44.702;11.030;2023-07-20T23:07:35;100566.16;;;24.87;86.68
55077;BME280;40971;44.702;11.030;2023-07-20T23:17:37;100569.31;;;24.79;87.08
55077;BME280;40971;44.702;11.030;2023-07-20T23:27:40;100565.03;;;24.46;87.08
55077;BME280;40971;44.702;11.030;2023-07-20T23:37:41;100588.16;;;24.15;87.96
55077;BME280;40971;44.702;11.030;2023-07-20T23:47:44;100578.97;;;23.85;92.15
55077;BME280;40971;44.702;11.030;2023-07-20T23:57:46;100565.56;;;23.85;90.21
